Aeroporto :
LOGIN :

Iscrizione | Disclaimer

   EN    FR    IT 

 










Sommario :    VFR   VFR Marginale   IFR   IFR Intensivo   IFR Molto Intensivo
Visibilità : 
Base nubi : 
>= 8 km
>= 3000ft
5 / 8 km
1000 / 3000 ft
1500m / 5 km
500 / 1000 ft
800 / 1500m
200 / 500 ft
< 800m
< 200 ft
Simboli :   Temporali  Nebbia  Neve Forte  Precipitazioni Forti  Vento > 20 kt
SIGMETs :   Varie  Temporali  Ghiacco  Turbolenza  Onda orograficha  Ceneri Vulcaniche







- Altitudine del aeroporto : 7 ft
- Codice IATA : POW


LJPZ - Portoroz

ULTIMO METAR :
  • 260730Z 31004KT 290V350 CAVOK 19/14 Q1015

METARs OBSOLETI :
  • 260700Z 16005KT 090V220 CAVOK 20/13 Q1015
  • 260630Z 31002KT CAVOK 18/14 Q1015
  • 260600Z VRB02KT CAVOK 16/14 Q1015
  • 260530Z VRB02KT CAVOK 14/13 Q1015
  • 260500Z 00000KT 9999 FEW035 BKN150 13/12 Q1015

TAF TAF LJPZ
Valido dal 26 a 06 ore il 26 a 15 ore UTC


260500Z 2606/2615 12005KT CAVOK
BECMG 2607/2609 18008KT FEW025 BKN100
TEMPO 2611/2615 -RA BKN050
Nessun NOTAM noto per questo aeroporto.



MetMap, La meteo Aeronautica in un colpo d'occhio ! - Copyright ORBIFLY Dicembre 2007 - Disclaimer

ORBIFLY MET'MAP TEAM :

Programmazione e sviluppo : Alexandra Zaïnal
Concezione e sviluppo : Baudouin d'Aumeries
Co-Programmazione e sviluppo : Marc-Olivier Méhu
Supporto tecnico e logistico : Manuel Goepfert
Aiuto per la traduzione : Arnaldo La Scala

Contatto : metmap@orbifly.com




FONTI E CREDITI :

   NOAA